West End, Bahamas

8:15 AM EDT on August 29, 2014 (GMT -0400)
Grand Bahama International | Change Station
CLOSE
Current Station
Airport
Location: Freeport,
Elevation: 36 ft
Nearby Weather Stations

Elev 36 ft 26.56 °N, 78.70 °W | Updated 15 minutes ago

Mostly Cloudy
Mostly Cloudy
81 °F
Feels Like 88 °F
N
0
Wind Variable Wind from North

Today
High -- | Low -- °F
--% Chance of Precip.
Yesterday
High -- | Low -- °F
Precip. -- in
6:54 AM 7:38 PM
Waxing Crescent, 14% visible
Pressure 30.02 in
Visibility 6.2 miles
Clouds Few 1800 ft
Mostly Cloudy 2000 ft
Heat Index 88 °F
Dew Point 79 °F
Humidity 94%
Rainfall 0.00 in
Snow Depth Not available.
UV 1 out of 12
Pollen Not available.
Air Quality Not available.
Flu Activity Not available.
METAR MYGF 291200Z 00000KT 9999 FEW018TCU BKN020 27/26 A3002 RMK TCU SCT ALQDS

More Conditions Fewer Conditions

Pressure 30.02 in
Visibility 6.2 miles
Clouds Few 1800 ft
Mostly Cloudy 2000 ft
Heat Index 88 °F
Dew Point 79 °F
Humidity 94%
Rainfall 0.00 in
Snow Depth Not available.
UV 1 out of 12
Pollen Not available.
Air Quality Not available.
Flu Activity Not available.
METAR MYGF 291200Z 00000KT 9999 FEW018TCU BKN020 27/26 A3002 RMK TCU SCT ALQDS

More Conditions Fewer Conditions

10-Day Weather Forecast

Almanac

Astronomy

Aug. 29, 2014 Rise Set
Actual Time 6:54 AM EDT 7:38 PM EDT
Civil Twilight 6:30 AM EDT 8:02 PM EDT
Nautical Twilight 6:02 AM EDT 8:30 PM EDT
Astronomical Twilight 5:34 AM EDT 8:58 PM EDT
Moon 10:17 AM EDT 10:02 PM EDT
Length of Visible Light 13h 32m
Length of Day
12h 44m
Tomorrow will be 1m 29s shorter.
Waxing Crescent, 14% of the Moon is Illuminated
Today
Waxing Crescent
Sep 2
First Quarter
Sep 8
Full
Sep 15
Last Quarter
Sep 24
New

Yesterday's Extremes

Country Highs Country Lows

Community

WunderPhotos

Upload Photos

1,748,217 photos uploaded!

Nearby

Snow Depth

Not available.

Earthquake Activity

City Distance Mag. Time & Date
No recent earthquake activity has been reported nearby.
Minimum magnitude displayed is 2.5.

Coastal Water Temperatures

Place Temperature
No Stations Reporting

Nearby Weather Stations